sensor_id;sensor_type;location;lat;lon;timestamp;P1;durP1;ratioP1;P2;durP2;ratioP2
7239;SDS011;3661;53.288;10.458;2024-01-06T01:18:19;577.58;;;529.97;;
7239;SDS011;3661;53.288;10.458;2024-01-06T01:20:51;585.08;;;537.33;;
7239;SDS011;3661;53.288;10.458;2024-01-06T01:23:24;575.97;;;529.05;;
7239;SDS011;3661;53.288;10.458;2024-01-06T01:25:56;576.47;;;528.28;;
7239;SDS011;3661;53.288;10.458;2024-01-06T01:28:28;583.35;;;535.75;;
7239;SDS011;3661;53.288;10.458;2024-01-06T01:31:00;578.15;;;530.17;;
7239;SDS011;3661;53.288;10.458;2024-01-06T01:33:34;582.95;;;535.38;;
7239;SDS011;3661;53.288;10.458;2024-01-06T01:36:07;585.50;;;538.22;;
7239;SDS011;3661;53.288;10.458;2024-01-06T01:38:41;572.53;;;525.25;;
7239;SDS011;3661;53.288;10.458;2024-01-06T01:41:13;578.00;;;530.15;;
7239;SDS011;3661;53.288;10.458;2024-01-06T01:43:47;571.53;;;524.05;;
7239;SDS011;3661;53.288;10.458;2024-01-06T01:46:28;569.45;;;522.53;;
7239;SDS011;3661;53.288;10.458;2024-01-06T01:49:02;596.72;;;549.45;;
7239;SDS011;3661;53.288;10.458;2024-01-06T01:51:37;587.60;;;539.80;;
7239;SDS011;3661;53.288;10.458;2024-01-06T01:54:11;576.15;;;528.47;;
7239;SDS011;3661;53.288;10.458;2024-01-06T01:56:43;588.35;;;540.13;;
7239;SDS011;3661;53.288;10.458;2024-01-06T01:59:16;589.22;;;541.33;;
7239;SDS011;3661;53.288;10.458;2024-01-06T02:01:49;594.53;;;546.45;;
7239;SDS011;3661;53.288;10.458;2024-01-06T02:04:23;585.87;;;538.10;;
7239;SDS011;3661;53.288;10.458;2024-01-06T02:06:55;602.95;;;554.45;;
7239;SDS011;3661;53.288;10.458;2024-01-06T02:09:27;611.00;;;562.85;;
7239;SDS011;3661;53.288;10.458;2024-01-06T02:11:59;594.20;;;546.60;;
7239;SDS011;3661;53.288;10.458;2024-01-06T02:14:31;596.70;;;548.90;;
7239;SDS011;3661;53.288;10.458;2024-01-06T02:17:03;593.00;;;544.72;;
7239;SDS011;3661;53.288;10.458;2024-01-06T02:19:37;582.85;;;535.38;;
7239;SDS011;3661;53.288;10.458;2024-01-06T02:22:10;603.53;;;555.70;;
7239;SDS011;3661;53.288;10.458;2024-01-06T02:24:47;574.35;;;527.38;;
7239;SDS011;3661;53.288;10.458;2024-01-06T02:27:19;596.17;;;548.47;;
7239;SDS011;3661;53.288;10.458;2024-01-06T02:29:51;588.58;;;541.17;;
7239;SDS011;3661;53.288;10.458;2024-01-06T02:32:23;597.00;;;549.35;;
7239;SDS011;3661;53.288;10.458;2024-01-06T02:34:55;557.53;;;510.52;;
7239;SDS011;3661;53.288;10.458;2024-01-06T02:37:32;578.00;;;530.40;;
7239;SDS011;3661;53.288;10.458;2024-01-06T02:40:05;583.20;;;534.90;;
7239;SDS011;3661;53.288;10.458;2024-01-06T02:42:38;586.85;;;539.75;;
7239;SDS011;3661;53.288;10.458;2024-01-06T02:45:11;578.58;;;530.72;;
7239;SDS011;3661;53.288;10.458;2024-01-06T02:47:43;582.85;;;535.17;;
7239;SDS011;3661;53.288;10.458;2024-01-06T02:50:15;568.88;;;521.03;;
7239;SDS011;3661;53.288;10.458;2024-01-06T02:52:49;564.92;;;517.83;;
7239;SDS011;3661;53.288;10.458;2024-01-06T02:55:21;581.23;;;534.10;;
7239;SDS011;3661;53.288;10.458;2024-01-06T02:57:53;580.80;;;533.35;;
7239;SDS011;3661;53.288;10.458;2024-01-06T03:00:25;596.42;;;548.60;;
7239;SDS011;3661;53.288;10.458;2024-01-06T03:02:57;573.13;;;526.08;;
7239;SDS011;3661;53.288;10.458;2024-01-06T03:05:29;587.38;;;539.67;;
7239;SDS011;3661;53.288;10.458;2024-01-06T03:08:03;572.13;;;524.42;;
7239;SDS011;3661;53.288;10.458;2024-01-06T03:10:38;574.72;;;527.58;;
7239;SDS011;3661;53.288;10.458;2024-01-06T03:13:11;572.20;;;524.63;;
7239;SDS011;3661;53.288;10.458;2024-01-06T03:15:43;586.08;;;538.22;;
7239;SDS011;3661;53.288;10.458;2024-01-06T03:18:15;575.28;;;527.67;;
7239;SDS011;3661;53.288;10.458;2024-01-06T03:20:47;581.57;;;534.37;;
7239;SDS011;3661;53.288;10.458;2024-01-06T03:23:22;590.53;;;542.95;;
7239;SDS011;3661;53.288;10.458;2024-01-06T03:25:54;575.83;;;528.83;;
7239;SDS011;3661;53.288;10.458;2024-01-06T03:28:27;574.80;;;528.00;;
7239;SDS011;3661;53.288;10.458;2024-01-06T03:30:59;581.22;;;533.65;;
7239;SDS011;3661;53.288;10.458;2024-01-06T03:33:32;569.77;;;522.53;;
7239;SDS011;3661;53.288;10.458;2024-01-06T03:36:05;580.38;;;532.95;;
7239;SDS011;3661;53.288;10.458;2024-01-06T03:38:39;574.88;;;528.05;;
7239;SDS011;3661;53.288;10.458;2024-01-06T03:41:11;585.80;;;538.03;;
7239;SDS011;3661;53.288;10.458;2024-01-06T03:43:43;586.10;;;538.25;;
7239;SDS011;3661;53.288;10.458;2024-01-06T03:46:15;581.67;;;534.17;;
7239;SDS011;3661;53.288;10.458;2024-01-06T03:48:47;590.07;;;541.90;;
7239;SDS011;3661;53.288;10.458;2024-01-06T03:51:19;582.95;;;535.28;;
7239;SDS011;3661;53.288;10.458;2024-01-06T03:53:53;574.58;;;526.97;;
7239;SDS011;3661;53.288;10.458;2024-01-06T03:56:25;583.07;;;535.37;;
7239;SDS011;3661;53.288;10.458;2024-01-06T03:58:57;582.03;;;535.17;;
7239;SDS011;3661;53.288;10.458;2024-01-06T04:01:29;581.45;;;533.88;;
7239;SDS011;3661;53.288;10.458;2024-01-06T04:04:04;577.63;;;529.92;;
7239;SDS011;3661;53.288;10.458;2024-01-06T04:06:37;567.45;;;519.75;;
7239;SDS011;3661;53.288;10.458;2024-01-06T04:09:10;585.88;;;538.70;;
7239;SDS011;3661;53.288;10.458;2024-01-06T04:11:42;574.78;;;527.17;;
7239;SDS011;3661;53.288;10.458;2024-01-06T04:14:14;587.50;;;539.47;;
7239;SDS011;3661;53.288;10.458;2024-01-06T04:16:47;573.80;;;526.42;;
7239;SDS011;3661;53.288;10.458;2024-01-06T04:19:19;583.13;;;535.72;;
7239;SDS011;3661;53.288;10.458;2024-01-06T04:21:51;575.25;;;527.83;;
7239;SDS011;3661;53.288;10.458;2024-01-06T04:24:25;576.65;;;529.42;;
7239;SDS011;3661;53.288;10.458;2024-01-06T04:26:58;561.13;;;513.60;;
7239;SDS011;3661;53.288;10.458;2024-01-06T04:29:30;599.77;;;551.93;;
7239;SDS011;3661;53.288;10.458;2024-01-06T04:32:03;573.50;;;526.65;;
7239;SDS011;3661;53.288;10.458;2024-01-06T04:34:35;587.00;;;538.58;;
7239;SDS011;3661;53.288;10.458;2024-01-06T04:37:07;592.22;;;545.00;;
7239;SDS011;3661;53.288;10.458;2024-01-06T04:39:40;584.53;;;537.35;;
7239;SDS011;3661;53.288;10.458;2024-01-06T04:42:12;579.80;;;532.83;;
7239;SDS011;3661;53.288;10.458;2024-01-06T04:44:44;589.97;;;542.90;;
7239;SDS011;3661;53.288;10.458;2024-01-06T04:47:17;583.85;;;536.00;;
7239;SDS011;3661;53.288;10.458;2024-01-06T04:49:49;577.85;;;530.30;;
7239;SDS011;3661;53.288;10.458;2024-01-06T04:52:21;571.97;;;524.35;;
7239;SDS011;3661;53.288;10.458;2024-01-06T04:54:55;589.58;;;541.72;;
7239;SDS011;3661;53.288;10.458;2024-01-06T04:57:27;570.78;;;523.38;;
7239;SDS011;3661;53.288;10.458;2024-01-06T04:59:59;574.33;;;526.58;;
7239;SDS011;3661;53.288;10.458;2024-01-06T05:02:31;575.00;;;527.53;;
7239;SDS011;3661;53.288;10.458;2024-01-06T05:05:04;563.55;;;515.97;;
7239;SDS011;3661;53.288;10.458;2024-01-06T05:07:36;583.60;;;536.30;;
7239;SDS011;3661;53.288;10.458;2024-01-06T05:10:09;573.20;;;525.80;;
7239;SDS011;3661;53.288;10.458;2024-01-06T05:12:41;567.85;;;520.55;;
7239;SDS011;3661;53.288;10.458;2024-01-06T05:15:13;594.08;;;546.03;;
7239;SDS011;3661;53.288;10.458;2024-01-06T05:17:45;576.78;;;529.63;;
7239;SDS011;3661;53.288;10.458;2024-01-06T05:20:19;568.53;;;521.60;;
7239;SDS011;3661;53.288;10.458;2024-01-06T05:22:51;573.08;;;525.42;;
7239;SDS011;3661;53.288;10.458;2024-01-06T05:25:26;574.88;;;527.38;;
7239;SDS011;3661;53.288;10.458;2024-01-06T05:27:59;577.15;;;529.15;;
7239;SDS011;3661;53.288;10.458;2024-01-06T05:30:31;576.05;;;528.97;;
7239;SDS011;3661;53.288;10.458;2024-01-06T05:33:04;568.20;;;521.00;;
7239;SDS011;3661;53.288;10.458;2024-01-06T05:35:36;570.55;;;522.92;;
7239;SDS011;3661;53.288;10.458;2024-01-06T05:38:08;566.22;;;519.33;;
7239;SDS011;3661;53.288;10.458;2024-01-06T05:40:46;585.65;;;538.33;;
7239;SDS011;3661;53.288;10.458;2024-01-06T05:43:18;575.30;;;528.05;;
7239;SDS011;3661;53.288;10.458;2024-01-06T05:45:50;573.05;;;525.40;;
7239;SDS011;3661;53.288;10.458;2024-01-06T05:48:22;559.28;;;512.20;;
7239;SDS011;3661;53.288;10.458;2024-01-06T05:50:55;574.92;;;527.33;;
7239;SDS011;3661;53.288;10.458;2024-01-06T05:53:27;575.30;;;527.80;;
7239;SDS011;3661;53.288;10.458;2024-01-06T05:56:01;576.67;;;528.80;;
7239;SDS011;3661;53.288;10.458;2024-01-06T05:58:33;591.95;;;543.58;;
7239;SDS011;3661;53.288;10.458;2024-01-06T06:01:07;586.53;;;538.78;;
7239;SDS011;3661;53.288;10.458;2024-01-06T06:03:39;570.40;;;523.10;;
7239;SDS011;3661;53.288;10.458;2024-01-06T06:06:11;581.03;;;533.50;;
7239;SDS011;3661;53.288;10.458;2024-01-06T06:08:45;561.58;;;515.00;;
7239;SDS011;3661;53.288;10.458;2024-01-06T06:11:20;565.38;;;518.58;;
7239;SDS011;3661;53.288;10.458;2024-01-06T06:13:52;566.20;;;519.65;;
7239;SDS011;3661;53.288;10.458;2024-01-06T06:16:24;566.78;;;519.53;;
7239;SDS011;3661;53.288;10.458;2024-01-06T06:18:56;568.85;;;522.05;;
7239;SDS011;3661;53.288;10.458;2024-01-06T06:21:28;556.95;;;510.35;;
7239;SDS011;3661;53.288;10.458;2024-01-06T06:24:01;570.67;;;524.20;;
7239;SDS011;3661;53.288;10.458;2024-01-06T06:26:35;577.97;;;530.40;;
7239;SDS011;3661;53.288;10.458;2024-01-06T06:29:08;573.03;;;526.03;;
7239;SDS011;3661;53.288;10.458;2024-01-06T06:31:40;556.67;;;509.88;;
7239;SDS011;3661;53.288;10.458;2024-01-06T06:34:14;560.78;;;514.25;;
7239;SDS011;3661;53.288;10.458;2024-01-06T06:36:46;571.97;;;524.88;;
7239;SDS011;3661;53.288;10.458;2024-01-06T06:39:19;557.90;;;510.92;;
7239;SDS011;3661;53.288;10.458;2024-01-06T06:41:55;561.58;;;514.97;;
7239;SDS011;3661;53.288;10.458;2024-01-06T06:44:27;571.72;;;524.63;;
7239;SDS011;3661;53.288;10.458;2024-01-06T06:46:59;558.85;;;512.13;;
7239;SDS011;3661;53.288;10.458;2024-01-06T06:49:32;568.03;;;521.58;;
7239;SDS011;3661;53.288;10.458;2024-01-06T06:52:04;574.30;;;527.00;;
7239;SDS011;3661;53.288;10.458;2024-01-06T06:54:37;575.53;;;527.83;;
7239;SDS011;3661;53.288;10.458;2024-01-06T06:57:11;560.10;;;513.10;;
7239;SDS011;3661;53.288;10.458;2024-01-06T06:59:43;571.53;;;524.25;;
7239;SDS011;3661;53.288;10.458;2024-01-06T07:02:15;566.95;;;520.33;;
7239;SDS011;3661;53.288;10.458;2024-01-06T07:04:47;573.83;;;526.83;;
7239;SDS011;3661;53.288;10.458;2024-01-06T07:07:20;573.00;;;525.70;;
7239;SDS011;3661;53.288;10.458;2024-01-06T07:10:00;573.00;;;525.70;;
7239;SDS011;3661;53.288;10.458;2024-01-06T07:12:34;579.10;;;531.50;;
7239;SDS011;3661;53.288;10.458;2024-01-06T07:15:07;564.78;;;518.30;;
7239;SDS011;3661;53.288;10.458;2024-01-06T07:17:41;562.03;;;515.53;;
7239;SDS011;3661;53.288;10.458;2024-01-06T07:20:13;575.88;;;529.30;;
7239;SDS011;3661;53.288;10.458;2024-01-06T07:22:45;561.03;;;514.72;;
7239;SDS011;3661;53.288;10.458;2024-01-06T07:25:17;572.97;;;526.72;;
7239;SDS011;3661;53.288;10.458;2024-01-06T07:27:50;569.92;;;522.70;;
7239;SDS011;3661;53.288;10.458;2024-01-06T07:30:23;562.53;;;516.17;;
7239;SDS011;3661;53.288;10.458;2024-01-06T07:32:55;565.53;;;518.88;;
7239;SDS011;3661;53.288;10.458;2024-01-06T07:35:27;561.08;;;514.53;;
7239;SDS011;3661;53.288;10.458;2024-01-06T07:37:59;561.03;;;514.13;;
7239;SDS011;3661;53.288;10.458;2024-01-06T07:40:31;557.50;;;510.67;;
7239;SDS011;3661;53.288;10.458;2024-01-06T07:43:04;571.50;;;524.33;;
7239;SDS011;3661;53.288;10.458;2024-01-06T07:45:36;563.50;;;516.72;;
7239;SDS011;3661;53.288;10.458;2024-01-06T07:48:09;579.38;;;532.10;;
7239;SDS011;3661;53.288;10.458;2024-01-06T07:50:41;552.33;;;505.70;;
7239;SDS011;3661;53.288;10.458;2024-01-06T07:53:13;557.75;;;510.90;;
7239;SDS011;3661;53.288;10.458;2024-01-06T07:55:45;556.13;;;508.83;;
7239;SDS011;3661;53.288;10.458;2024-01-06T07:58:19;556.60;;;509.80;;
7239;SDS011;3661;53.288;10.458;2024-01-06T08:00:51;566.43;;;518.80;;
7239;SDS011;3661;53.288;10.458;2024-01-06T08:03:24;564.63;;;517.58;;
7239;SDS011;3661;53.288;10.458;2024-01-06T08:05:56;575.75;;;528.28;;
7239;SDS011;3661;53.288;10.458;2024-01-06T08:08:28;546.35;;;500.25;;
7239;SDS011;3661;53.288;10.458;2024-01-06T08:11:00;566.60;;;518.78;;
7239;SDS011;3661;53.288;10.458;2024-01-06T08:13:33;557.58;;;510.92;;
7239;SDS011;3661;53.288;10.458;2024-01-06T08:16:06;563.28;;;515.95;;
7239;SDS011;3661;53.288;10.458;2024-01-06T08:18:38;563.47;;;516.17;;
7239;SDS011;3661;53.288;10.458;2024-01-06T08:21:10;541.72;;;495.30;;
7239;SDS011;3661;53.288;10.458;2024-01-06T08:23:42;564.58;;;517.65;;
7239;SDS011;3661;53.288;10.458;2024-01-06T08:26:15;550.25;;;503.58;;
7239;SDS011;3661;53.288;10.458;2024-01-06T08:28:48;568.17;;;521.22;;
7239;SDS011;3661;53.288;10.458;2024-01-06T08:31:20;533.22;;;487.30;;
7239;SDS011;3661;53.288;10.458;2024-01-06T08:33:53;573.53;;;526.50;;
7239;SDS011;3661;53.288;10.458;2024-01-06T08:36:25;549.58;;;503.42;;
7239;SDS011;3661;53.288;10.458;2024-01-06T08:38:57;562.40;;;515.30;;
7239;SDS011;3661;53.288;10.458;2024-01-06T08:41:29;547.03;;;500.80;;
7239;SDS011;3661;53.288;10.458;2024-01-06T08:44:03;558.28;;;511.27;;
7239;SDS011;3661;53.288;10.458;2024-01-06T08:46:35;544.70;;;497.88;;
7239;SDS011;3661;53.288;10.458;2024-01-06T08:49:07;553.35;;;506.77;;
7239;SDS011;3661;53.288;10.458;2024-01-06T08:51:39;534.90;;;488.33;;
7239;SDS011;3661;53.288;10.458;2024-01-06T08:54:11;544.75;;;498.30;;
7239;SDS011;3661;53.288;10.458;2024-01-06T08:56:43;564.80;;;517.93;;
7239;SDS011;3661;53.288;10.458;2024-01-06T08:59:17;550.05;;;503.45;;
7239;SDS011;3661;53.288;10.458;2024-01-06T09:01:50;555.50;;;508.80;;
7239;SDS011;3661;53.288;10.458;2024-01-06T09:04:22;547.80;;;501.52;;
7239;SDS011;3661;53.288;10.458;2024-01-06T09:06:55;558.78;;;511.98;;
7239;SDS011;3661;53.288;10.458;2024-01-06T09:09:26;560.27;;;513.33;;
7239;SDS011;3661;53.288;10.458;2024-01-06T09:12:00;557.97;;;510.83;;
7239;SDS011;3661;53.288;10.458;2024-01-06T09:14:34;550.13;;;503.65;;
7239;SDS011;3661;53.288;10.458;2024-01-06T09:17:06;543.67;;;497.73;;
7239;SDS011;3661;53.288;10.458;2024-01-06T09:19:38;556.63;;;509.85;;
7239;SDS011;3661;53.288;10.458;2024-01-06T09:22:10;558.20;;;511.27;;
7239;SDS011;3661;53.288;10.458;2024-01-06T09:24:43;545.25;;;499.63;;
7239;SDS011;3661;53.288;10.458;2024-01-06T09:27:15;551.45;;;504.92;;
7239;SDS011;3661;53.288;10.458;2024-01-06T09:29:48;532.33;;;486.65;;
7239;SDS011;3661;53.288;10.458;2024-01-06T09:32:21;563.97;;;517.05;;
7239;SDS011;3661;53.288;10.458;2024-01-06T09:34:54;546.78;;;500.25;;
7239;SDS011;3661;53.288;10.458;2024-01-06T09:37:26;558.42;;;511.92;;
7239;SDS011;3661;53.288;10.458;2024-01-06T09:39:58;555.22;;;508.48;;
7239;SDS011;3661;53.288;10.458;2024-01-06T09:42:30;542.67;;;496.13;;
7239;SDS011;3661;53.288;10.458;2024-01-06T09:45:04;542.42;;;495.48;;
7239;SDS011;3661;53.288;10.458;2024-01-06T09:47:37;538.47;;;492.17;;
7239;SDS011;3661;53.288;10.458;2024-01-06T09:50:12;552.72;;;505.90;;
7239;SDS011;3661;53.288;10.458;2024-01-06T09:52:45;556.53;;;509.15;;
7239;SDS011;3661;53.288;10.458;2024-01-06T09:55:24;567.40;;;520.60;;
7239;SDS011;3661;53.288;10.458;2024-01-06T09:57:57;548.83;;;502.48;;
7239;SDS011;3661;53.288;10.458;2024-01-06T10:00:31;552.85;;;505.83;;
7239;SDS011;3661;53.288;10.458;2024-01-06T10:03:03;547.05;;;500.13;;
7239;SDS011;3661;53.288;10.458;2024-01-06T10:05:38;534.63;;;488.83;;
7239;SDS011;3661;53.288;10.458;2024-01-06T10:08:10;545.10;;;499.38;;
7239;SDS011;3661;53.288;10.458;2024-01-06T10:10:42;550.92;;;503.92;;
7239;SDS011;3661;53.288;10.458;2024-01-06T10:13:16;548.17;;;502.53;;
7239;SDS011;3661;53.288;10.458;2024-01-06T10:15:50;529.35;;;484.20;;
7239;SDS011;3661;53.288;10.458;2024-01-06T10:18:22;552.75;;;506.42;;
7239;SDS011;3661;53.288;10.458;2024-01-06T10:20:57;544.47;;;498.48;;
7239;SDS011;3661;53.288;10.458;2024-01-06T10:23:29;542.03;;;495.33;;
7239;SDS011;3661;53.288;10.458;2024-01-06T10:26:04;542.53;;;495.92;;
7239;SDS011;3661;53.288;10.458;2024-01-06T10:28:36;543.10;;;496.85;;
7239;SDS011;3661;53.288;10.458;2024-01-06T10:31:10;545.58;;;500.00;;
7239;SDS011;3661;53.288;10.458;2024-01-06T10:33:43;557.40;;;510.77;;
7239;SDS011;3661;53.288;10.458;2024-01-06T10:36:16;544.72;;;498.27;;
7239;SDS011;3661;53.288;10.458;2024-01-06T10:38:48;554.15;;;508.48;;
7239;SDS011;3661;53.288;10.458;2024-01-06T10:41:22;564.60;;;517.90;;
7239;SDS011;3661;53.288;10.458;2024-01-06T10:43:55;549.77;;;503.13;;
7239;SDS011;3661;53.288;10.458;2024-01-06T10:46:33;556.70;;;510.30;;
7239;SDS011;3661;53.288;10.458;2024-01-06T10:49:06;562.08;;;515.97;;
7239;SDS011;3661;53.288;10.458;2024-01-06T10:51:40;549.97;;;503.98;;
7239;SDS011;3661;53.288;10.458;2024-01-06T10:54:12;564.47;;;517.80;;
7239;SDS011;3661;53.288;10.458;2024-01-06T10:56:46;529.30;;;483.20;;
7239;SDS011;3661;53.288;10.458;2024-01-06T10:59:20;552.53;;;506.42;;
7239;SDS011;3661;53.288;10.458;2024-01-06T11:01:56;541.88;;;496.70;;
7239;SDS011;3661;53.288;10.458;2024-01-06T11:04:30;556.17;;;509.88;;
7239;SDS011;3661;53.288;10.458;2024-01-06T11:07:15;567.47;;;520.70;;
7239;SDS011;3661;53.288;10.458;2024-01-06T11:09:50;540.70;;;494.67;;
7239;SDS011;3661;53.288;10.458;2024-01-06T11:12:25;545.77;;;499.27;;
7239;SDS011;3661;53.288;10.458;2024-01-06T11:14:57;562.38;;;515.55;;
7239;SDS011;3661;53.288;10.458;2024-01-06T11:20:28;554.83;;;508.52;;
7239;SDS011;3661;53.288;10.458;2024-01-06T11:25:48;569.95;;;523.25;;
7239;SDS011;3661;53.288;10.458;2024-01-06T11:28:21;559.83;;;514.37;;
7239;SDS011;3661;53.288;10.458;2024-01-06T11:31:04;559.27;;;512.30;;
7239;SDS011;3661;53.288;10.458;2024-01-06T11:33:43;557.50;;;510.77;;
7239;SDS011;3661;53.288;10.458;2024-01-06T11:36:18;566.55;;;519.63;;
7239;SDS011;3661;53.288;10.458;2024-01-06T11:38:52;554.17;;;507.87;;
7239;SDS011;3661;53.288;10.458;2024-01-06T11:44:22;540.05;;;494.00;;
7239;SDS011;3661;53.288;10.458;2024-01-06T11:46:54;554.50;;;508.13;;
7239;SDS011;3661;53.288;10.458;2024-01-06T11:49:29;555.50;;;508.55;;
7239;SDS011;3661;53.288;10.458;2024-01-06T11:52:02;547.30;;;500.48;;
7239;SDS011;3661;53.288;10.458;2024-01-06T11:54:34;557.28;;;510.50;;
7239;SDS011;3661;53.288;10.458;2024-01-06T11:57:07;551.78;;;505.42;;
7239;SDS011;3661;53.288;10.458;2024-01-06T11:59:39;543.13;;;497.10;;
7239;SDS011;3661;53.288;10.458;2024-01-06T12:02:12;567.35;;;520.20;;
7239;SDS011;3661;53.288;10.458;2024-01-06T12:04:48;551.47;;;504.83;;
7239;SDS011;3661;53.288;10.458;2024-01-06T12:07:22;547.00;;;500.90;;
7239;SDS011;3661;53.288;10.458;2024-01-06T12:10:00;557.88;;;511.77;;
7239;SDS011;3661;53.288;10.458;2024-01-06T12:12:33;551.40;;;504.75;;
7239;SDS011;3661;53.288;10.458;2024-01-06T12:15:06;562.78;;;515.53;;
7239;SDS011;3661;53.288;10.458;2024-01-06T12:17:40;549.67;;;503.50;;
7239;SDS011;3661;53.288;10.458;2024-01-06T12:20:13;552.05;;;505.70;;
7239;SDS011;3661;53.288;10.458;2024-01-06T12:22:45;544.03;;;497.48;;
7239;SDS011;3661;53.288;10.458;2024-01-06T12:25:17;541.40;;;495.50;;
7239;SDS011;3661;53.288;10.458;2024-01-06T12:27:51;559.38;;;513.08;;
7239;SDS011;3661;53.288;10.458;2024-01-06T12:30:24;554.95;;;508.45;;
7239;SDS011;3661;53.288;10.458;2024-01-06T12:32:57;558.03;;;511.70;;
7239;SDS011;3661;53.288;10.458;2024-01-06T12:35:32;571.92;;;525.13;;
7239;SDS011;3661;53.288;10.458;2024-01-06T12:38:06;551.80;;;505.33;;
7239;SDS011;3661;53.288;10.458;2024-01-06T12:40:40;535.13;;;489.42;;
7239;SDS011;3661;53.288;10.458;2024-01-06T12:43:12;549.95;;;503.42;;
7239;SDS011;3661;53.288;10.458;2024-01-06T12:45:44;541.75;;;495.50;;
7239;SDS011;3661;53.288;10.458;2024-01-06T12:48:16;555.22;;;508.35;;
7239;SDS011;3661;53.288;10.458;2024-01-06T12:50:52;562.45;;;515.53;;
7239;SDS011;3661;53.288;10.458;2024-01-06T12:53:24;551.65;;;505.42;;
7239;SDS011;3661;53.288;10.458;2024-01-06T12:55:56;543.13;;;497.52;;
7239;SDS011;3661;53.288;10.458;2024-01-06T12:58:28;553.90;;;507.30;;
7239;SDS011;3661;53.288;10.458;2024-01-06T13:01:01;554.38;;;507.58;;
7239;SDS011;3661;53.288;10.458;2024-01-06T13:03:33;552.22;;;505.42;;
7239;SDS011;3661;53.288;10.458;2024-01-06T13:06:06;557.78;;;511.23;;
7239;SDS011;3661;53.288;10.458;2024-01-06T13:08:39;548.53;;;501.50;;
7239;SDS011;3661;53.288;10.458;2024-01-06T13:11:11;547.05;;;500.73;;
7239;SDS011;3661;53.288;10.458;2024-01-06T13:13:43;539.20;;;493.15;;
7239;SDS011;3661;53.288;10.458;2024-01-06T13:16:16;553.17;;;506.37;;
7239;SDS011;3661;53.288;10.458;2024-01-06T13:18:48;550.50;;;503.70;;
7239;SDS011;3661;53.288;10.458;2024-01-06T13:21:21;551.40;;;504.77;;
7239;SDS011;3661;53.288;10.458;2024-01-06T13:23:54;538.40;;;492.10;;
7239;SDS011;3661;53.288;10.458;2024-01-06T13:26:32;551.00;;;504.40;;
7239;SDS011;3661;53.288;10.458;2024-01-06T13:29:06;554.25;;;507.58;;
7239;SDS011;3661;53.288;10.458;2024-01-06T13:31:41;551.83;;;505.73;;
7239;SDS011;3661;53.288;10.458;2024-01-06T13:34:13;558.40;;;512.03;;
7239;SDS011;3661;53.288;10.458;2024-01-06T13:36:46;559.95;;;514.08;;
7239;SDS011;3661;53.288;10.458;2024-01-06T13:39:18;539.83;;;493.48;;
7239;SDS011;3661;53.288;10.458;2024-01-06T13:41:51;548.85;;;502.15;;
7239;SDS011;3661;53.288;10.458;2024-01-06T13:44:23;549.35;;;503.25;;
7239;SDS011;3661;53.288;10.458;2024-01-06T13:46:55;564.45;;;517.63;;
7239;SDS011;3661;53.288;10.458;2024-01-06T13:49:28;560.00;;;512.67;;
7239;SDS011;3661;53.288;10.458;2024-01-06T13:52:01;552.65;;;505.98;;
7239;SDS011;3661;53.288;10.458;2024-01-06T13:54:34;556.80;;;509.98;;
7239;SDS011;3661;53.288;10.458;2024-01-06T13:57:07;561.85;;;515.28;;
7239;SDS011;3661;53.288;10.458;2024-01-06T13:59:39;548.60;;;502.02;;
7239;SDS011;3661;53.288;10.458;2024-01-06T14:02:13;559.28;;;512.53;;
7239;SDS011;3661;53.288;10.458;2024-01-06T14:04:45;546.97;;;500.73;;
7239;SDS011;3661;53.288;10.458;2024-01-06T14:07:19;542.55;;;496.27;;
7239;SDS011;3661;53.288;10.458;2024-01-06T14:09:53;541.88;;;495.45;;
7239;SDS011;3661;53.288;10.458;2024-01-06T14:12:25;557.40;;;510.80;;
7239;SDS011;3661;53.288;10.458;2024-01-06T14:14:57;531.80;;;486.30;;
7239;SDS011;3661;53.288;10.458;2024-01-06T14:17:29;535.08;;;488.63;;
7239;SDS011;3661;53.288;10.458;2024-01-06T14:20:01;545.25;;;499.17;;
7239;SDS011;3661;53.288;10.458;2024-01-06T14:22:36;542.83;;;496.88;;
7239;SDS011;3661;53.288;10.458;2024-01-06T14:25:09;546.38;;;500.48;;
7239;SDS011;3661;53.288;10.458;2024-01-06T14:27:41;540.55;;;495.10;;
7239;SDS011;3661;53.288;10.458;2024-01-06T14:30:13;540.65;;;494.33;;
7239;SDS011;3661;53.288;10.458;2024-01-06T14:32:45;538.80;;;493.27;;
7239;SDS011;3661;53.288;10.458;2024-01-06T14:35:17;533.97;;;488.08;;
7239;SDS011;3661;53.288;10.458;2024-01-06T14:37:51;538.00;;;492.05;;
7239;SDS011;3661;53.288;10.458;2024-01-06T14:40:24;552.35;;;505.33;;
7239;SDS011;3661;53.288;10.458;2024-01-06T14:42:56;553.17;;;506.67;;
7239;SDS011;3661;53.288;10.458;2024-01-06T14:45:32;548.38;;;502.45;;
7239;SDS011;3661;53.288;10.458;2024-01-06T14:48:05;540.25;;;494.55;;
7239;SDS011;3661;53.288;10.458;2024-01-06T14:50:37;543.10;;;497.70;;
7239;SDS011;3661;53.288;10.458;2024-01-06T14:53:10;542.47;;;497.05;;
7239;SDS011;3661;53.288;10.458;2024-01-06T14:55:43;521.83;;;477.45;;
7239;SDS011;3661;53.288;10.458;2024-01-06T14:58:15;538.33;;;493.42;;
7239;SDS011;3661;53.288;10.458;2024-01-06T15:00:47;537.72;;;492.20;;
7239;SDS011;3661;53.288;10.458;2024-01-06T15:03:19;564.27;;;518.33;;
7239;SDS011;3661;53.288;10.458;2024-01-06T15:05:51;537.75;;;492.75;;
7239;SDS011;3661;53.288;10.458;2024-01-06T15:08:24;552.60;;;508.17;;
7239;SDS011;3661;53.288;10.458;2024-01-06T15:10:56;535.95;;;491.25;;
7239;SDS011;3661;53.288;10.458;2024-01-06T15:13:28;548.25;;;502.58;;
7239;SDS011;3661;53.288;10.458;2024-01-06T15:16:01;559.15;;;513.67;;
7239;SDS011;3661;53.288;10.458;2024-01-06T15:18:33;561.13;;;515.10;;
7239;SDS011;3661;53.288;10.458;2024-01-06T15:21:06;538.25;;;493.05;;
7239;SDS011;3661;53.288;10.458;2024-01-06T15:23:39;532.20;;;487.37;;
7239;SDS011;3661;53.288;10.458;2024-01-06T15:26:11;510.42;;;466.02;;
7239;SDS011;3661;53.288;10.458;2024-01-06T15:28:53;521.85;;;477.73;;
7239;SDS011;3661;53.288;10.458;2024-01-06T15:31:26;535.20;;;489.80;;
7239;SDS011;3661;53.288;10.458;2024-01-06T15:33:59;516.28;;;472.45;;
7239;SDS011;3661;53.288;10.458;2024-01-06T15:36:31;521.87;;;476.77;;
7239;SDS011;3661;53.288;10.458;2024-01-06T15:42:32;522.55;;;478.25;;
7239;SDS011;3661;53.288;10.458;2024-01-06T15:48:30;527.47;;;483.30;;
7239;SDS011;3661;53.288;10.458;2024-01-06T15:54:29;517.05;;;473.20;;
7239;SDS011;3661;53.288;10.458;2024-01-06T16:00:29;535.88;;;490.98;;
7239;SDS011;3661;53.288;10.458;2024-01-06T16:06:28;513.78;;;469.02;;
7239;SDS011;3661;53.288;10.458;2024-01-06T16:12:28;509.02;;;465.08;;
7239;SDS011;3661;53.288;10.458;2024-01-06T16:33:07;517.95;;;474.27;;
7239;SDS011;3661;53.288;10.458;2024-01-06T16:39:06;518.37;;;474.13;;
7239;SDS011;3661;53.288;10.458;2024-01-06T16:48:33;526.22;;;481.80;;
7239;SDS011;3661;53.288;10.458;2024-01-06T16:54:33;517.93;;;474.37;;
7239;SDS011;3661;53.288;10.458;2024-01-06T17:00:34;513.42;;;469.20;;
7239;SDS011;3661;53.288;10.458;2024-01-06T17:06:34;517.25;;;472.95;;